Flight Track Log - Related Links

Times and Time Zones

All times are in EDT time to prevent confusion due to time zone crossing. See the N368BE flight status page for this flight to view local times or setup timezone preferences in your user account.

Time Position Orientation Groundspeed Altitude Reporting Facility
EDT Latitude Longitude Course Direction KTS MPH feet Rate Location/Type
Thu 05:48:29 PM 42.3078 -104.6008 41° Northeast 315 362 16,600  Level Denver Center
Thu 05:49:31 PM 42.3892 -104.5036 41° Northeast 345 397 17,500 1,016 Climbing Denver Center
Thu 05:50:33 PM 42.4761 -104.4375 29° Northeast 374 430 18,700 1,790 Climbing Denver Center
Thu 05:51:35 PM 42.5742 -104.3583 31° Northeast 374 430 21,200 2,323 Climbing Denver Center
Thu 05:52:37 PM 42.6564 -104.2950 30° Northeast 364 419 23,500 2,129 Climbing Denver Center
Thu 05:53:39 PM 42.7533 -104.2175 30° Northeast 363 418 25,600 1,296 Climbing Denver Center
Thu 05:54:42 PM 42.8431 -104.1458 30° Northeast 388 447 26,200 960 Climbing Denver Center
Thu 05:55:44 PM 42.9575 -104.0550 30° Northeast 418 481 27,600 1,403 Climbing Denver Center
Thu 05:56:46 PM 43.0550 -103.9758 31° Northeast 423 487 29,100 1,694 Climbing Denver Center
Thu 05:57:48 PM 43.1672 -103.8850 31° Northeast 423 487 31,100 1,694 Climbing Denver Center
Thu 05:58:50 PM 43.2631 -103.8094 30° Northeast 420 483 32,600 1,548 Climbing Denver Center
Thu 05:59:52 PM 43.3742 -103.7203 30° Northeast 415 478 34,300 1,403 Climbing Denver Center
Thu 06:00:54 PM 43.4703 -103.6383 32° Northeast 418 481 35,500 1,258 Climbing Denver Center
Thu 06:01:56 PM 43.5858 -103.5453 30° Northeast 428 493 36,900 1,258 Climbing Denver Center
Thu 06:02:58 PM 43.6842 -103.4658 30° Northeast 431 496 38,100 1,016 Climbing Denver Center
Thu 06:04:00 PM 43.7975 -103.3725 31° Northeast 428 493 39,000 435 Climbing Denver Center
Thu 06:05:02 PM 43.8989 -103.2872 31° Northeast 438 504 39,000  Level Denver Center
Thu 06:06:05 PM 44.0231 -103.1850 31° Northeast 461 531 39,000  Level Denver Center
Thu 06:07:07 PM 44.1311 -103.0944 31° Northeast 467 537 39,000  Level Denver Center
Thu 06:08:09 PM 44.2478 -102.9992 30° Northeast 474 545 39,000  Level Denver Center
Thu 06:09:11 PM 44.3592 -102.9028 32° Northeast 474 545 39,000  Level Denver Center
Thu 06:10:13 PM 44.4731 -102.8067 31° Northeast 475 547 39,000  Level Denver Center
Thu 06:11:15 PM 44.6072 -102.6928 31° Northeast 474 545 39,000  Level Denver Center
Thu 06:12:17 PM 44.7172 -102.5944 32° Northeast 473 544 39,000 -97 Level Denver Center
Thu 06:13:19 PM 44.8294 -102.4997 31° Northeast 472 543 38,800 -541 Descending Denver Center
Thu 06:14:08 PM 44.9189 -102.4211 32° Northeast 472 543 38,000 -1,027 Descending Minneapolis Center
Thu 06:15:10 PM 45.0300 -102.3239 32° Northeast 472 543 36,900 -1,016 Descending Minneapolis Center
Thu 06:16:12 PM 45.1411 -102.2283 31° Northeast 471 542 35,900 -960 Descending Minneapolis Center
Thu 06:17:15 PM 45.2500 -102.1319 32° Northeast 466 536 34,900 -1,056 Descending Minneapolis Center
Thu 06:18:17 PM 45.3781 -102.0192 32° Northeast 456 525 33,700 -1,113 Descending Minneapolis Center
Thu 06:19:19 PM 45.4828 -101.9253 32° Northeast 451 519 32,600 -1,113 Descending Minneapolis Center
Thu 06:20:21 PM 45.5864 -101.8344 32° Northeast 443 510 31,400 -1,742 Descending Minneapolis Center
Thu 06:21:23 PM 45.6883 -101.7422 32° Northeast 437 503 29,000 -2,468 Descending Minneapolis Center
Thu 06:22:25 PM 45.7911 -101.6500 32° Northeast 437 503 26,300 -2,613 Descending Minneapolis Center
Thu 06:23:27 PM 45.8917 -101.5592 32° Northeast 434 499 23,600 -2,710 Descending Minneapolis Center
Thu 06:24:29 PM 46.0053 -101.4544 33° Northeast 416 479 20,700 -2,496 Descending Minneapolis Center
Thu 06:25:32 PM 46.0922 -101.3767 32° Northeast 391 450 18,400 -2,112 Descending Minneapolis Center
Thu 06:26:34 PM 46.1744 -101.3011 32° Northeast 368 423 16,300 -2,081 Descending Minneapolis Center
Thu 06:27:36 PM 46.2531 -101.2283 33° Northeast 352 405 14,100 -2,032 Descending Minneapolis Center
Thu 06:28:38 PM 46.3325 -101.1650 29° Northeast 340 391 12,100 -1,694 Descending Minneapolis Center
Thu 06:29:40 PM 46.4114 -101.1239 20° North 321 369 10,600 -1,790 Descending Minneapolis Center
Thu 06:30:42 PM 46.4969 -101.0672 25° Northeast 288 331 8,400 -2,032 Descending Minneapolis Center
Thu 06:31:44 PM 46.5703 -101.0242 22° Northeast 283 326 6,400 -1,597 Descending Minneapolis Center
Thu 06:32:46 PM 46.6397 -100.9814 23° Northeast 271 312 5,100 -816 Descending Minneapolis Center
Thu 06:33:49 PM 46.7033 -100.9433 22° Northeast 229 264 4,700 -480 Descending Minneapolis Center
Thu 06:34:51 PM 46.7611 -100.9083 23° Northeast 221 254 4,100 -629 Descending Minneapolis Center
Thu 06:35:53 PM 46.8139 -100.8747 24° Northeast 207 238 3,400 -726 Descending Minneapolis Center
Thu 06:36:55 PM 46.8222 -100.8147 79° East 159 183 2,600 -629 Descending Minneapolis Center
Thu 06:37:57 PM 46.7992 -100.7822 136° Southeast 118 136 2,100 -435 Descending Minneapolis Center
Thu 06:38:59 PM 46.7764 -100.7506 136° Southeast 117 135 1,700 -387 Descending Minneapolis Center
Thu 06:40:00 PM 46.7727 -100.7458 34° Northeast  Level Estimated
Thu 06:47:00 PM 46.7727 -100.7458 34° Northeast  Level Estimated

Login

Don't have an account? Register now (free) for customized features, flight alerts, and more!